Terminal Aerodrome Forecast
Issued by NWS

Home | Current Version | Previous Version | Text Only | Print | Product List | Glossary On
Versions: 1 2 3 4 5 6 7 8 9 10 11 12 13 14 15 16
000
FTUS46 KPQR 081143
TAFONP
TAF
KONP 081143Z 0812/0912 08021G30KT P6SM BKN050 OVC100
      TEMPO 0812/0814 -RASN
     FM081400 08020G30KT 3SM -SN BR BKN025 OVC050
     FM081600 10015G22KT 5SM -RA BKN020 OVC035
     FM082100 19012G23KT 6SM -RA BKN015 OVC035
     FM090300 21012KT P6SM -SHRA BKN025 OVC050=

USA.gov is the U.S. government's official web portal to all federal, state and local government web resources and services.